Weather History for KCKC - April, 2014

Change the Weather History Date:

Thursday, April 10, 2014

  Actual Average Record
Temperature  
Mean Temperature 40 °F -  
Max Temperature 46 °F 41 °F 64 °F (2003)
Min Temperature 33 °F 24 °F 6 °F (2007)
Degree Days  
Heating Degree Days 26    
Moisture  
Dew Point 23 °F    
Average Humidity 51    
Maximum Humidity 76    
Minimum Humidity 34    
Precipitation  
Precipitation 0.00 in - - ()
Sea Level Pressure  
Sea Level Pressure 29.55 in    
Wind  
Wind Speed 13 mph (West)    
Max Wind Speed 24 mph    
Max Gust Speed 37 mph    
Visibility 10 miles    
Events      
Averages and records for this station are not official NWS values.
T = Trace of Precipitation, MM = Missing Value Source: NWS Daily Summary

Daily Weather History Graph

Daily Weather History Graph

Search for Another Location

Airport or City:

Trip Planner

Search our weather history database for the weather conditions in past years. The results will help you decide how hot, cold, wet, or windy it might be!

Date:

Astronomy

Apr. 10, 2014 Rise Set
Actual Time 6:21 AM CDT 7:44 PM CDT
Civil Twilight 5:49 AM CDT 8:16 PM CDT
Nautical Twilight 5:11 AM CDT 8:55 PM CDT
Astronomical Twilight 4:29 AM CDT 9:37 PM CDT
Moon 3:10 PM CDT (4/10) 4:04 AM CDT (4/10)
Length of Visible Light 14h 26m
Length of Day
13h 22m
Waxing Gibbous, 80% of the Moon is Illuminated
Apr 10
Waxing Gibbous
Apr 15
Full
Apr 22
Last Quarter
Apr 29
New
May 6
First Quarter

Hourly Weather History & Observations

Time (CDT) Temp. Windchill Dew Point Humidity Pressure Visibility Wind Dir Wind Speed Gust Speed Precip Events Conditions
12:14 AM 44.6 °F 40.7 °F 37.4 °F 76% 29.36 in 10.0 mi WSW 6.9 mph - N/A   Mostly Cloudy
12:33 AM 46.4 °F 40.4 °F 37.4 °F 71% 29.36 in 10.0 mi West 13.8 mph 20.7 mph N/A   Mostly Cloudy
12:53 AM 44.6 °F 39.2 °F 35.6 °F 71% 29.36 in 10.0 mi West 10.4 mph 19.6 mph N/A   Mostly Cloudy
1:14 AM 44.6 °F 38.1 °F 35.6 °F 71% 29.37 in 10.0 mi West 13.8 mph 19.6 mph N/A   Scattered Clouds
1:33 AM 42.8 °F 36.2 °F 33.8 °F 70% 29.39 in 10.0 mi WNW 12.7 mph 26.5 mph N/A   Clear
1:53 AM 41.0 °F 33.9 °F 30.2 °F 65% 29.39 in 10.0 mi WNW 12.7 mph 24.2 mph N/A   Scattered Clouds
2:14 AM 41.0 °F 34.3 °F 30.2 °F 65% 29.39 in 10.0 mi WNW 11.5 mph 25.3 mph N/A   Scattered Clouds
2:33 AM 39.2 °F 31.2 °F 28.4 °F 65% 29.39 in 10.0 mi WNW 13.8 mph 23.0 mph N/A   Clear
2:53 AM 39.2 °F 30.5 °F 28.4 °F 65% 29.40 in 10.0 mi WNW 16.1 mph 25.3 mph N/A   Clear
3:14 AM 39.2 °F 31.2 °F 28.4 °F 65% 29.40 in 10.0 mi WNW 13.8 mph 21.9 mph N/A   Clear
3:33 AM 37.4 °F 28.5 °F 28.4 °F 70% 29.41 in 10.0 mi West 15.0 mph 23.0 mph N/A   Clear
3:54 AM 37.4 °F 28.9 °F 28.4 °F 70% 29.41 in 10.0 mi West 13.8 mph 19.6 mph N/A   Clear
4:14 AM 37.4 °F 29.8 °F 28.4 °F 70% 29.40 in 10.0 mi West 11.5 mph 21.9 mph N/A   Clear
4:33 AM 37.4 °F 30.3 °F 28.4 °F 70% 29.41 in 10.0 mi West 10.4 mph 21.9 mph N/A   Clear
4:54 AM 37.4 °F 30.3 °F 28.4 °F 70% 29.43 in 10.0 mi West 10.4 mph 19.6 mph N/A   Clear
5:13 AM 35.6 °F 27.5 °F 26.6 °F 70% 29.43 in 10.0 mi West 11.5 mph 19.6 mph N/A   Clear
5:34 AM 35.6 °F 28.6 °F 26.6 °F 70% 29.43 in 10.0 mi West 9.2 mph 18.4 mph N/A   Clear
5:54 AM 35.6 °F 28.0 °F 26.6 °F 70% 29.43 in 10.0 mi WSW 10.4 mph 19.6 mph N/A   Clear
6:13 AM 35.6 °F 28.0 °F 24.8 °F 65% 29.44 in 10.0 mi WSW 10.4 mph 17.3 mph N/A   Clear
6:31 AM 33.8 °F 25.8 °F 24.8 °F 70% 29.44 in 10.0 mi WSW 10.4 mph 17.3 mph N/A   Clear
6:54 AM 35.6 °F 28.0 °F 24.8 °F 65% 29.45 in 10.0 mi WSW 10.4 mph - N/A   Clear
7:13 AM 35.6 °F 28.6 °F 24.8 °F 65% 29.45 in 10.0 mi SW 9.2 mph - N/A   Clear
7:33 AM 37.4 °F 30.8 °F 24.8 °F 60% 29.46 in 10.0 mi WSW 9.2 mph - N/A   Clear
7:54 AM 37.4 °F 30.3 °F 24.8 °F 60% 29.46 in 10.0 mi WSW 10.4 mph 20.7 mph N/A   Clear
8:14 AM 39.2 °F 32.0 °F 23.0 °F 52% 29.46 in 10.0 mi West 11.5 mph 21.9 mph N/A   Clear
8:33 AM 39.2 °F 33.0 °F 23.0 °F 52% 29.46 in 10.0 mi WSW 9.2 mph 23.0 mph N/A   Clear
8:54 AM 41.0 °F 34.3 °F 23.0 °F 49% 29.45 in 10.0 mi West 11.5 mph 27.6 mph N/A   Clear
9:14 AM 42.8 °F 36.2 °F 23.0 °F 46% 29.45 in 10.0 mi West 12.7 mph 24.2 mph N/A   Clear
9:34 AM 42.8 °F 37.0 °F 23.0 °F 46% 29.45 in 10.0 mi West 10.4 mph 27.6 mph N/A   Clear
9:53 AM 42.8 °F 34.0 °F 21.2 °F 42% 29.45 in 10.0 mi West 20.7 mph 28.8 mph N/A   Clear
10:14 AM 42.8 °F 33.8 °F 21.2 °F 42% 29.46 in 10.0 mi West 21.9 mph 33.4 mph N/A   Clear
10:34 AM 42.8 °F 36.6 °F 21.2 °F 42% 29.46 in 10.0 mi West 11.5 mph 26.5 mph N/A   Scattered Clouds
10:53 AM 44.6 °F 36.9 °F 21.2 °F 39% 29.46 in 10.0 mi West 18.4 mph 29.9 mph N/A   Clear
11:14 AM 44.6 °F 37.2 °F 21.2 °F 39% 29.47 in 10.0 mi West 17.3 mph 33.4 mph N/A   Clear
11:33 AM 44.6 °F 36.4 °F 21.2 °F 39% 29.48 in 10.0 mi West 20.7 mph 31.1 mph N/A   Clear
11:54 AM 44.6 °F 35.9 °F 21.2 °F 39% 29.49 in 10.0 mi West 23.0 mph 32.2 mph N/A   Scattered Clouds
12:13 PM 44.6 °F 37.4 °F 21.2 °F 39% 29.50 in 10.0 mi West 16.1 mph 31.1 mph N/A   Scattered Clouds
12:34 PM 44.6 °F 36.1 °F 21.2 °F 39% 29.51 in 10.0 mi WNW 21.9 mph 36.8 mph N/A   Scattered Clouds
12:53 PM 42.8 °F 35.4 °F 21.2 °F 42% 29.52 in 10.0 mi West 15.0 mph 27.6 mph N/A   Scattered Clouds
1:13 PM 42.8 °F 33.3 °F 21.2 °F 42% 29.53 in 10.0 mi West 24.2 mph 32.2 mph N/A   Scattered Clouds
1:34 PM 42.8 °F 33.5 °F 21.2 °F 42% 29.54 in 10.0 mi West 23.0 mph 34.5 mph N/A   Scattered Clouds
1:53 PM 42.8 °F 33.8 °F 21.2 °F 42% 29.55 in 10.0 mi West 21.9 mph 35.7 mph N/A   Clear
2:14 PM 42.8 °F 34.5 °F 21.2 °F 42% 29.55 in 10.0 mi West 18.4 mph 33.4 mph N/A   Clear
2:34 PM 44.6 °F 36.4 °F 19.4 °F 37% 29.56 in 10.0 mi West 20.7 mph 33.4 mph N/A   Clear
2:53 PM 44.6 °F 37.8 °F 19.4 °F 37% 29.57 in 10.0 mi WNW 15.0 mph 27.6 mph N/A   Clear
3:13 PM 44.6 °F 37.8 °F 19.4 °F 37% 29.58 in 10.0 mi West 15.0 mph 28.8 mph N/A   Clear
3:34 PM 44.6 °F 35.9 °F 17.6 °F 34% 29.59 in 10.0 mi WNW 23.0 mph 35.7 mph N/A   Clear
3:53 PM 44.6 °F 36.4 °F 17.6 °F 34% 29.60 in 10.0 mi West 20.7 mph 29.9 mph N/A   Clear
4:14 PM 44.6 °F 37.4 °F 17.6 °F 34% 29.61 in 10.0 mi WNW 16.1 mph 27.6 mph N/A   Clear
4:34 PM 44.6 °F 37.8 °F 17.6 °F 34% 29.62 in 10.0 mi West 15.0 mph 31.1 mph N/A   Clear
4:53 PM 44.6 °F 36.6 °F 17.6 °F 34% 29.63 in 10.0 mi West 19.6 mph 32.2 mph N/A   Clear
5:14 PM 44.6 °F 38.4 °F 17.6 °F 34% 29.65 in 10.0 mi West 12.7 mph 25.3 mph N/A   Clear
5:34 PM 44.6 °F 37.8 °F 17.6 °F 34% 29.66 in 10.0 mi West 15.0 mph 26.5 mph N/A   Clear
5:53 PM 42.8 °F 35.1 °F 17.6 °F 36% 29.67 in 10.0 mi West 16.1 mph 31.1 mph N/A   Clear
6:13 PM 42.8 °F 35.4 °F 17.6 °F 36% 29.68 in 10.0 mi West 15.0 mph 25.3 mph N/A   Clear
6:34 PM 42.8 °F 36.2 °F 17.6 °F 36% 29.69 in 10.0 mi West 12.7 mph 26.5 mph N/A   Clear
6:53 PM 42.8 °F 35.8 °F 17.6 °F 36% 29.70 in 10.0 mi West 13.8 mph 26.5 mph N/A   Clear
7:13 PM 41.0 °F 36.4 °F 17.6 °F 39% 29.72 in 10.0 mi West 6.9 mph 20.7 mph N/A   Clear
7:34 PM 39.2 °F 32.0 °F 17.6 °F 42% 29.72 in 10.0 mi West 11.5 mph 18.4 mph N/A   Clear
7:54 PM 39.2 °F 32.0 °F 19.4 °F 45% 29.73 in 10.0 mi West 11.5 mph 21.9 mph N/A   Clear
8:13 PM 39.2 °F 31.6 °F 17.6 °F 42% 29.73 in 10.0 mi West 12.7 mph 16.1 mph N/A   Clear
8:34 PM 37.4 °F 32.8 °F 17.6 °F 45% 29.75 in 10.0 mi West 5.8 mph - N/A   Clear
8:54 PM 37.4 °F 33.8 °F 19.4 °F 48% 29.76 in 10.0 mi West 4.6 mph - N/A   Clear
9:14 PM 37.4 °F 33.8 °F 19.4 °F 48% 29.77 in 10.0 mi West 4.6 mph - N/A   Clear
9:33 PM 35.6 °F 30.7 °F 19.4 °F 52% 29.78 in 10.0 mi West 5.8 mph - N/A   Clear
9:54 PM 35.6 °F 31.7 °F 19.4 °F 52% 29.79 in 10.0 mi WSW 4.6 mph - N/A   Clear
10:14 PM 35.6 °F 29.9 °F 19.4 °F 52% 29.80 in 10.0 mi West 6.9 mph - N/A   Clear
10:33 PM 33.8 °F 27.0 °F 19.4 °F 56% 29.80 in 10.0 mi West 8.1 mph - N/A   Clear
10:54 PM 33.8 °F 28.6 °F 19.4 °F 56% 29.81 in 10.0 mi West 5.8 mph - N/A   Clear
11:14 PM 33.8 °F 27.7 °F 19.4 °F 56% 29.81 in 10.0 mi West 6.9 mph - N/A   Clear
11:33 PM 33.8 °F 28.6 °F 21.2 °F 60% 29.82 in 10.0 mi West 5.8 mph - N/A   Clear
11:54 PM 33.8 °F 28.6 °F 21.2 °F 60% 29.82 in 10.0 mi West 5.8 mph - N/A   Clear